sensor_id;sensor_type;location;lat;lon;timestamp;P1;durP1;ratioP1;P2;durP2;ratioP2
23280;SDS011;11809;56.390;-3.266;2023-03-01T00:01:27;0.30;;;0.30;;
23280;SDS011;11809;56.390;-3.266;2023-03-01T00:03:55;0.57;;;0.30;;
23280;SDS011;11809;56.390;-3.266;2023-03-01T00:06:23;1.65;;;0.30;;
23280;SDS011;11809;56.390;-3.266;2023-03-01T00:08:50;0.20;;;0.20;;
23280;SDS011;11809;56.390;-3.266;2023-03-01T00:11:19;0.50;;;0.30;;
23280;SDS011;11809;56.390;-3.266;2023-03-01T00:13:48;0.32;;;0.30;;
23280;SDS011;11809;56.390;-3.266;2023-03-01T00:16:19;0.35;;;0.30;;
23280;SDS011;11809;56.390;-3.266;2023-03-01T00:18:47;0.68;;;0.20;;
23280;SDS011;11809;56.390;-3.266;2023-03-01T00:21:15;0.52;;;0.20;;
23280;SDS011;11809;56.390;-3.266;2023-03-01T00:23:44;0.40;;;0.30;;
23280;SDS011;11809;56.390;-3.266;2023-03-01T00:26:12;0.30;;;0.30;;
23280;SDS011;11809;56.390;-3.266;2023-03-01T00:28:40;0.30;;;0.28;;
23280;SDS011;11809;56.390;-3.266;2023-03-01T00:31:12;0.20;;;0.20;;
23280;SDS011;11809;56.390;-3.266;2023-03-01T00:33:41;0.40;;;0.28;;
23280;SDS011;11809;56.390;-3.266;2023-03-01T00:36:09;0.32;;;0.32;;
23280;SDS011;11809;56.390;-3.266;2023-03-01T00:38:44;0.40;;;0.25;;
23280;SDS011;11809;56.390;-3.266;2023-03-01T00:41:13;0.50;;;0.30;;
23280;SDS011;11809;56.390;-3.266;2023-03-01T00:43:41;0.30;;;0.30;;
23280;SDS011;11809;56.390;-3.266;2023-03-01T00:46:12;0.40;;;0.40;;
23280;SDS011;11809;56.390;-3.266;2023-03-01T00:48:41;0.77;;;0.30;;
23280;SDS011;11809;56.390;-3.266;2023-03-01T00:51:10;0.30;;;0.20;;
23280;SDS011;11809;56.390;-3.266;2023-03-01T00:53:38;0.50;;;0.30;;
23280;SDS011;11809;56.390;-3.266;2023-03-01T00:56:06;0.47;;;0.30;;
23280;SDS011;11809;56.390;-3.266;2023-03-01T00:58:35;0.45;;;0.25;;
23280;SDS011;11809;56.390;-3.266;2023-03-01T01:01:11;0.50;;;0.20;;
23280;SDS011;11809;56.390;-3.266;2023-03-01T01:03:47;0.52;;;0.32;;
23280;SDS011;11809;56.390;-3.266;2023-03-01T01:06:18;0.30;;;0.30;;
23280;SDS011;11809;56.390;-3.266;2023-03-01T01:08:47;0.70;;;0.35;;
23280;SDS011;11809;56.390;-3.266;2023-03-01T01:11:15;0.35;;;0.20;;
23280;SDS011;11809;56.390;-3.266;2023-03-01T01:13:43;0.32;;;0.30;;
23280;SDS011;11809;56.390;-3.266;2023-03-01T01:16:11;1.05;;;0.30;;
23280;SDS011;11809;56.390;-3.266;2023-03-01T01:18:39;0.63;;;0.28;;
23280;SDS011;11809;56.390;-3.266;2023-03-01T01:21:09;1.65;;;0.30;;
23280;SDS011;11809;56.390;-3.266;2023-03-01T01:23:38;0.28;;;0.28;;
23280;SDS011;11809;56.390;-3.266;2023-03-01T01:26:08;0.30;;;0.30;;
23280;SDS011;11809;56.390;-3.266;2023-03-01T01:28:40;0.20;;;0.20;;
23280;SDS011;11809;56.390;-3.266;2023-03-01T01:31:07;0.30;;;0.30;;
23280;SDS011;11809;56.390;-3.266;2023-03-01T01:33:35;0.40;;;0.30;;
23280;SDS011;11809;56.390;-3.266;2023-03-01T01:36:07;0.38;;;0.35;;
23280;SDS011;11809;56.390;-3.266;2023-03-01T01:38:34;0.30;;;0.30;;
23280;SDS011;11809;56.390;-3.266;2023-03-01T01:41:03;1.33;;;0.30;;
23280;SDS011;11809;56.390;-3.266;2023-03-01T01:43:33;0.40;;;0.30;;
23280;SDS011;11809;56.390;-3.266;2023-03-01T01:46:06;0.20;;;0.20;;
23280;SDS011;11809;56.390;-3.266;2023-03-01T01:48:58;0.22;;;0.22;;
23280;SDS011;11809;56.390;-3.266;2023-03-01T01:51:35;2.08;;;0.20;;
23280;SDS011;11809;56.390;-3.266;2023-03-01T01:54:15;0.35;;;0.20;;
23280;SDS011;11809;56.390;-3.266;2023-03-01T01:56:50;0.20;;;0.20;;
23280;SDS011;11809;56.390;-3.266;2023-03-01T01:59:21;0.22;;;0.22;;
23280;SDS011;11809;56.390;-3.266;2023-03-01T02:01:51;0.52;;;0.20;;
23280;SDS011;11809;56.390;-3.266;2023-03-01T02:04:19;0.30;;;0.30;;
23280;SDS011;11809;56.390;-3.266;2023-03-01T02:09:50;0.30;;;0.30;;
23280;SDS011;11809;56.390;-3.266;2023-03-01T02:12:20;0.15;;;0.15;;
23280;SDS011;11809;56.390;-3.266;2023-03-01T02:14:50;0.30;;;0.25;;
23280;SDS011;11809;56.390;-3.266;2023-03-01T02:17:17;1.08;;;0.25;;
23280;SDS011;11809;56.390;-3.266;2023-03-01T02:22:24;0.47;;;0.30;;
23280;SDS011;11809;56.390;-3.266;2023-03-01T02:25:06;0.25;;;0.20;;
23280;SDS011;11809;56.390;-3.266;2023-03-01T02:28:08;0.20;;;0.20;;
23280;SDS011;11809;56.390;-3.266;2023-03-01T02:30:40;0.60;;;0.30;;
23280;SDS011;11809;56.390;-3.266;2023-03-01T02:33:28;0.47;;;0.20;;
23280;SDS011;11809;56.390;-3.266;2023-03-01T02:36:00;0.35;;;0.20;;
23280;SDS011;11809;56.390;-3.266;2023-03-01T02:38:28;0.20;;;0.20;;
23280;SDS011;11809;56.390;-3.266;2023-03-01T02:40:55;0.75;;;0.20;;
23280;SDS011;11809;56.390;-3.266;2023-03-01T02:43:24;0.30;;;0.30;;
23280;SDS011;11809;56.390;-3.266;2023-03-01T02:45:57;0.30;;;0.30;;
23280;SDS011;11809;56.390;-3.266;2023-03-01T02:48:25;0.30;;;0.20;;
23280;SDS011;11809;56.390;-3.266;2023-03-01T02:53:37;0.22;;;0.20;;
23280;SDS011;11809;56.390;-3.266;2023-03-01T02:56:11;0.30;;;0.30;;
23280;SDS011;11809;56.390;-3.266;2023-03-01T02:58:40;0.20;;;0.20;;
23280;SDS011;11809;56.390;-3.266;2023-03-01T03:01:12;0.90;;;0.40;;
23280;SDS011;11809;56.390;-3.266;2023-03-01T03:03:41;1.75;;;0.30;;
23280;SDS011;11809;56.390;-3.266;2023-03-01T03:06:09;0.20;;;0.20;;
23280;SDS011;11809;56.390;-3.266;2023-03-01T03:08:36;0.63;;;0.40;;
23280;SDS011;11809;56.390;-3.266;2023-03-01T03:11:04;0.40;;;0.30;;
23280;SDS011;11809;56.390;-3.266;2023-03-01T03:13:31;0.20;;;0.20;;
23280;SDS011;11809;56.390;-3.266;2023-03-01T03:15:58;0.20;;;0.20;;
23280;SDS011;11809;56.390;-3.266;2023-03-01T03:18:25;0.50;;;0.30;;
23280;SDS011;11809;56.390;-3.266;2023-03-01T03:20:52;0.28;;;0.28;;
23280;SDS011;11809;56.390;-3.266;2023-03-01T03:23:20;7.38;;;0.32;;
23280;SDS011;11809;56.390;-3.266;2023-03-01T03:25:49;0.40;;;0.20;;
23280;SDS011;11809;56.390;-3.266;2023-03-01T03:28:16;0.30;;;0.30;;
23280;SDS011;11809;56.390;-3.266;2023-03-01T03:30:44;0.85;;;0.40;;
23280;SDS011;11809;56.390;-3.266;2023-03-01T03:33:11;0.30;;;0.20;;
23280;SDS011;11809;56.390;-3.266;2023-03-01T03:35:46;0.68;;;0.35;;
23280;SDS011;11809;56.390;-3.266;2023-03-01T03:38:16;2.53;;;0.20;;
23280;SDS011;11809;56.390;-3.266;2023-03-01T03:43:20;0.65;;;0.38;;
23280;SDS011;11809;56.390;-3.266;2023-03-01T03:45:49;0.65;;;0.20;;
23280;SDS011;11809;56.390;-3.266;2023-03-01T03:48:17;0.40;;;0.30;;
23280;SDS011;11809;56.390;-3.266;2023-03-01T03:50:49;0.20;;;0.20;;
23280;SDS011;11809;56.390;-3.266;2023-03-01T03:53:18;0.20;;;0.20;;
23280;SDS011;11809;56.390;-3.266;2023-03-01T03:55:46;0.20;;;0.20;;
23280;SDS011;11809;56.390;-3.266;2023-03-01T03:58:15;0.20;;;0.20;;
23280;SDS011;11809;56.390;-3.266;2023-03-01T04:00:46;1.17;;;0.30;;
23280;SDS011;11809;56.390;-3.266;2023-03-01T04:03:15;1.23;;;0.22;;
23280;SDS011;11809;56.390;-3.266;2023-03-01T04:05:45;0.30;;;0.30;;
23280;SDS011;11809;56.390;-3.266;2023-03-01T04:08:13;0.40;;;0.25;;
23280;SDS011;11809;56.390;-3.266;2023-03-01T04:10:41;0.15;;;0.15;;
23280;SDS011;11809;56.390;-3.266;2023-03-01T04:13:12;0.77;;;0.30;;
23280;SDS011;11809;56.390;-3.266;2023-03-01T04:15:41;0.50;;;0.20;;
23280;SDS011;11809;56.390;-3.266;2023-03-01T04:18:14;0.20;;;0.20;;
23280;SDS011;11809;56.390;-3.266;2023-03-01T04:20:42;0.75;;;0.20;;
23280;SDS011;11809;56.390;-3.266;2023-03-01T04:23:12;0.20;;;0.20;;
23280;SDS011;11809;56.390;-3.266;2023-03-01T04:25:47;0.55;;;0.25;;
23280;SDS011;11809;56.390;-3.266;2023-03-01T04:28:23;1.98;;;0.30;;
23280;SDS011;11809;56.390;-3.266;2023-03-01T04:30:52;2.13;;;0.32;;
23280;SDS011;11809;56.390;-3.266;2023-03-01T04:33:20;0.57;;;0.30;;
23280;SDS011;11809;56.390;-3.266;2023-03-01T04:35:47;0.65;;;0.22;;
23280;SDS011;11809;56.390;-3.266;2023-03-01T04:38:17;0.30;;;0.20;;
23280;SDS011;11809;56.390;-3.266;2023-03-01T04:40:45;0.38;;;0.20;;
23280;SDS011;11809;56.390;-3.266;2023-03-01T04:43:12;0.30;;;0.30;;
23280;SDS011;11809;56.390;-3.266;2023-03-01T04:45:42;0.60;;;0.32;;
23280;SDS011;11809;56.390;-3.266;2023-03-01T04:48:10;1.30;;;0.30;;
23280;SDS011;11809;56.390;-3.266;2023-03-01T04:50:36;0.20;;;0.20;;
23280;SDS011;11809;56.390;-3.266;2023-03-01T04:53:03;0.32;;;0.30;;
23280;SDS011;11809;56.390;-3.266;2023-03-01T04:55:30;0.30;;;0.20;;
23280;SDS011;11809;56.390;-3.266;2023-03-01T04:57:58;3.10;;;0.32;;
23280;SDS011;11809;56.390;-3.266;2023-03-01T05:00:25;0.52;;;0.40;;
23280;SDS011;11809;56.390;-3.266;2023-03-01T05:02:52;0.65;;;0.35;;
23280;SDS011;11809;56.390;-3.266;2023-03-01T05:05:30;0.30;;;0.30;;
23280;SDS011;11809;56.390;-3.266;2023-03-01T05:08:01;0.30;;;0.30;;
23280;SDS011;11809;56.390;-3.266;2023-03-01T05:10:32;0.35;;;0.20;;
23280;SDS011;11809;56.390;-3.266;2023-03-01T05:13:02;0.28;;;0.20;;
23280;SDS011;11809;56.390;-3.266;2023-03-01T05:15:30;0.30;;;0.30;;
23280;SDS011;11809;56.390;-3.266;2023-03-01T05:17:58;0.20;;;0.20;;
23280;SDS011;11809;56.390;-3.266;2023-03-01T05:20:27;0.22;;;0.22;;
23280;SDS011;11809;56.390;-3.266;2023-03-01T05:22:57;0.40;;;0.30;;
23280;SDS011;11809;56.390;-3.266;2023-03-01T05:25:25;11.40;;;0.57;;
23280;SDS011;11809;56.390;-3.266;2023-03-01T05:27:53;4.78;;;0.57;;
23280;SDS011;11809;56.390;-3.266;2023-03-01T05:30:19;11.57;;;0.77;;
23280;SDS011;11809;56.390;-3.266;2023-03-01T05:32:49;3.28;;;0.60;;
23280;SDS011;11809;56.390;-3.266;2023-03-01T05:35:22;6.30;;;0.38;;
23280;SDS011;11809;56.390;-3.266;2023-03-01T05:37:49;4.55;;;0.50;;
23280;SDS011;11809;56.390;-3.266;2023-03-01T05:40:18;15.25;;;1.05;;
23280;SDS011;11809;56.390;-3.266;2023-03-01T05:42:47;12.63;;;1.02;;
23280;SDS011;11809;56.390;-3.266;2023-03-01T05:45:16;10.38;;;1.02;;
23280;SDS011;11809;56.390;-3.266;2023-03-01T05:47:44;15.38;;;0.75;;
23280;SDS011;11809;56.390;-3.266;2023-03-01T05:50:17;6.07;;;0.60;;
23280;SDS011;11809;56.390;-3.266;2023-03-01T05:52:46;7.88;;;1.00;;
23280;SDS011;11809;56.390;-3.266;2023-03-01T05:55:23;11.43;;;0.88;;
23280;SDS011;11809;56.390;-3.266;2023-03-01T05:57:54;13.82;;;1.23;;
23280;SDS011;11809;56.390;-3.266;2023-03-01T06:00:21;13.45;;;1.10;;
23280;SDS011;11809;56.390;-3.266;2023-03-01T06:02:49;7.72;;;1.20;;
23280;SDS011;11809;56.390;-3.266;2023-03-01T06:05:18;14.73;;;1.63;;
23280;SDS011;11809;56.390;-3.266;2023-03-01T06:07:45;19.45;;;1.27;;
23280;SDS011;11809;56.390;-3.266;2023-03-01T06:10:12;25.90;;;2.00;;
23280;SDS011;11809;56.390;-3.266;2023-03-01T06:12:41;9.23;;;1.33;;
23280;SDS011;11809;56.390;-3.266;2023-03-01T06:15:11;16.48;;;1.35;;
23280;SDS011;11809;56.390;-3.266;2023-03-01T06:17:41;15.53;;;1.23;;
23280;SDS011;11809;56.390;-3.266;2023-03-01T06:22:38;9.30;;;1.10;;
23280;SDS011;11809;56.390;-3.266;2023-03-01T06:25:06;16.65;;;1.35;;
23280;SDS011;11809;56.390;-3.266;2023-03-01T06:27:34;13.75;;;1.50;;
23280;SDS011;11809;56.390;-3.266;2023-03-01T06:30:01;6.55;;;0.88;;
23280;SDS011;11809;56.390;-3.266;2023-03-01T06:32:28;16.50;;;1.10;;
23280;SDS011;11809;56.390;-3.266;2023-03-01T06:34:55;26.92;;;1.98;;
23280;SDS011;11809;56.390;-3.266;2023-03-01T06:37:22;15.25;;;1.40;;
23280;SDS011;11809;56.390;-3.266;2023-03-01T06:39:49;13.63;;;1.17;;
23280;SDS011;11809;56.390;-3.266;2023-03-01T06:42:16;14.30;;;1.05;;
23280;SDS011;11809;56.390;-3.266;2023-03-01T06:44:43;10.00;;;1.02;;
23280;SDS011;11809;56.390;-3.266;2023-03-01T06:47:10;6.95;;;0.65;;
23280;SDS011;11809;56.390;-3.266;2023-03-01T06:49:37;8.15;;;1.00;;
23280;SDS011;11809;56.390;-3.266;2023-03-01T06:52:04;6.93;;;0.80;;
23280;SDS011;11809;56.390;-3.266;2023-03-01T06:54:31;5.68;;;0.88;;
23280;SDS011;11809;56.390;-3.266;2023-03-01T06:56:58;8.98;;;0.50;;
23280;SDS011;11809;56.390;-3.266;2023-03-01T06:59:25;4.13;;;0.70;;
23280;SDS011;11809;56.390;-3.266;2023-03-01T07:01:52;7.25;;;0.80;;
23280;SDS011;11809;56.390;-3.266;2023-03-01T07:04:19;2.72;;;0.50;;
23280;SDS011;11809;56.390;-3.266;2023-03-01T07:06:45;10.23;;;0.95;;
23280;SDS011;11809;56.390;-3.266;2023-03-01T07:09:18;6.53;;;0.90;;
23280;SDS011;11809;56.390;-3.266;2023-03-01T07:11:46;17.63;;;1.70;;
23280;SDS011;11809;56.390;-3.266;2023-03-01T07:14:13;11.23;;;0.90;;
23280;SDS011;11809;56.390;-3.266;2023-03-01T07:16:40;28.17;;;1.13;;
23280;SDS011;11809;56.390;-3.266;2023-03-01T07:19:07;15.55;;;1.25;;
23280;SDS011;11809;56.390;-3.266;2023-03-01T07:21:34;10.93;;;0.80;;
23280;SDS011;11809;56.390;-3.266;2023-03-01T07:24:01;8.50;;;0.80;;
23280;SDS011;11809;56.390;-3.266;2023-03-01T07:26:28;4.65;;;0.80;;
23280;SDS011;11809;56.390;-3.266;2023-03-01T07:28:56;13.52;;;1.63;;
23280;SDS011;11809;56.390;-3.266;2023-03-01T07:31:25;10.52;;;0.95;;
23280;SDS011;11809;56.390;-3.266;2023-03-01T07:33:54;7.10;;;0.80;;
23280;SDS011;11809;56.390;-3.266;2023-03-01T07:36:22;6.40;;;0.70;;
23280;SDS011;11809;56.390;-3.266;2023-03-01T07:38:50;2.38;;;0.63;;
23280;SDS011;11809;56.390;-3.266;2023-03-01T07:41:17;3.00;;;0.80;;
23280;SDS011;11809;56.390;-3.266;2023-03-01T07:43:45;3.53;;;0.77;;
23280;SDS011;11809;56.390;-3.266;2023-03-01T07:46:12;3.55;;;0.70;;
23280;SDS011;11809;56.390;-3.266;2023-03-01T07:48:39;2.75;;;0.60;;
23280;SDS011;11809;56.390;-3.266;2023-03-01T07:51:06;4.78;;;0.52;;
23280;SDS011;11809;56.390;-3.266;2023-03-01T07:53:34;5.35;;;0.65;;
23280;SDS011;11809;56.390;-3.266;2023-03-01T07:56:04;1.60;;;0.50;;
23280;SDS011;11809;56.390;-3.266;2023-03-01T07:58:34;4.15;;;0.77;;
23280;SDS011;11809;56.390;-3.266;2023-03-01T08:01:03;1.50;;;0.50;;
23280;SDS011;11809;56.390;-3.266;2023-03-01T08:03:32;4.65;;;0.70;;
23280;SDS011;11809;56.390;-3.266;2023-03-01T08:06:01;4.30;;;0.65;;
23280;SDS011;11809;56.390;-3.266;2023-03-01T08:08:29;2.13;;;0.50;;
23280;SDS011;11809;56.390;-3.266;2023-03-01T08:10:57;1.48;;;0.50;;
23280;SDS011;11809;56.390;-3.266;2023-03-01T08:13:25;5.10;;;0.63;;
23280;SDS011;11809;56.390;-3.266;2023-03-01T08:15:53;4.13;;;0.63;;
23280;SDS011;11809;56.390;-3.266;2023-03-01T08:18:20;2.97;;;0.50;;
23280;SDS011;11809;56.390;-3.266;2023-03-01T08:20:47;0.82;;;0.43;;
23280;SDS011;11809;56.390;-3.266;2023-03-01T08:23:15;4.88;;;0.60;;
23280;SDS011;11809;56.390;-3.266;2023-03-01T08:25:42;1.77;;;0.50;;
23280;SDS011;11809;56.390;-3.266;2023-03-01T08:28:09;1.48;;;0.50;;
23280;SDS011;11809;56.390;-3.266;2023-03-01T08:30:36;4.00;;;0.68;;
23280;SDS011;11809;56.390;-3.266;2023-03-01T08:33:03;1.80;;;0.50;;
23280;SDS011;11809;56.390;-3.266;2023-03-01T08:35:30;2.28;;;0.40;;
23280;SDS011;11809;56.390;-3.266;2023-03-01T08:37:57;1.40;;;0.65;;
23280;SDS011;11809;56.390;-3.266;2023-03-01T08:40:24;1.90;;;0.60;;
23280;SDS011;11809;56.390;-3.266;2023-03-01T08:42:51;2.42;;;0.70;;
23280;SDS011;11809;56.390;-3.266;2023-03-01T08:45:18;0.73;;;0.45;;
23280;SDS011;11809;56.390;-3.266;2023-03-01T08:47:45;3.03;;;0.60;;
23280;SDS011;11809;56.390;-3.266;2023-03-01T08:50:12;2.25;;;0.60;;
23280;SDS011;11809;56.390;-3.266;2023-03-01T08:52:39;2.97;;;0.40;;
23280;SDS011;11809;56.390;-3.266;2023-03-01T08:55:07;2.25;;;0.65;;
23280;SDS011;11809;56.390;-3.266;2023-03-01T08:57:34;1.17;;;0.43;;
23280;SDS011;11809;56.390;-3.266;2023-03-01T09:00:02;1.20;;;0.55;;
23280;SDS011;11809;56.390;-3.266;2023-03-01T09:02:30;2.90;;;0.60;;
23280;SDS011;11809;56.390;-3.266;2023-03-01T09:04:57;3.42;;;0.65;;
23280;SDS011;11809;56.390;-3.266;2023-03-01T09:07:25;1.30;;;0.47;;
23280;SDS011;11809;56.390;-3.266;2023-03-01T09:09:54;1.08;;;0.50;;
23280;SDS011;11809;56.390;-3.266;2023-03-01T09:12:22;0.75;;;0.40;;
23280;SDS011;11809;56.390;-3.266;2023-03-01T09:14:51;0.75;;;0.50;;
23280;SDS011;11809;56.390;-3.266;2023-03-01T09:17:18;1.20;;;0.40;;
23280;SDS011;11809;56.390;-3.266;2023-03-01T09:19:48;1.80;;;1.10;;
23280;SDS011;11809;56.390;-3.266;2023-03-01T09:22:15;0.98;;;0.52;;
23280;SDS011;11809;56.390;-3.266;2023-03-01T09:24:42;1.65;;;0.50;;
23280;SDS011;11809;56.390;-3.266;2023-03-01T09:27:10;0.80;;;0.52;;
23280;SDS011;11809;56.390;-3.266;2023-03-01T09:29:39;1.02;;;0.50;;
23280;SDS011;11809;56.390;-3.266;2023-03-01T09:32:06;0.60;;;0.50;;
23280;SDS011;11809;56.390;-3.266;2023-03-01T09:34:34;1.48;;;0.73;;
23280;SDS011;11809;56.390;-3.266;2023-03-01T09:37:22;0.50;;;0.40;;
23280;SDS011;11809;56.390;-3.266;2023-03-01T09:39:49;1.27;;;0.60;;
23280;SDS011;11809;56.390;-3.266;2023-03-01T09:42:16;0.50;;;0.40;;
23280;SDS011;11809;56.390;-3.266;2023-03-01T09:44:56;1.10;;;0.50;;
23280;SDS011;11809;56.390;-3.266;2023-03-01T09:47:29;0.90;;;0.60;;
23280;SDS011;11809;56.390;-3.266;2023-03-01T09:55:15;1.95;;;0.47;;
23280;SDS011;11809;56.390;-3.266;2023-03-01T10:00:52;2.58;;;0.50;;
23280;SDS011;11809;56.390;-3.266;2023-03-01T10:03:26;1.67;;;0.60;;
23280;SDS011;11809;56.390;-3.266;2023-03-01T10:09:05;1.02;;;0.50;;
23280;SDS011;11809;56.390;-3.266;2023-03-01T10:11:38;1.10;;;0.50;;
23280;SDS011;11809;56.390;-3.266;2023-03-01T10:22:51;0.82;;;0.60;;
23280;SDS011;11809;56.390;-3.266;2023-03-01T10:25:44;0.82;;;0.50;;
23280;SDS011;11809;56.390;-3.266;2023-03-01T10:31:08;0.50;;;0.50;;
23280;SDS011;11809;56.390;-3.266;2023-03-01T10:33:41;0.98;;;0.70;;
23280;SDS011;11809;56.390;-3.266;2023-03-01T10:36:09;0.95;;;0.60;;
23280;SDS011;11809;56.390;-3.266;2023-03-01T10:38:49;0.50;;;0.50;;
23280;SDS011;11809;56.390;-3.266;2023-03-01T10:41:21;0.50;;;0.50;;
23280;SDS011;11809;56.390;-3.266;2023-03-01T10:43:56;0.70;;;0.50;;
23280;SDS011;11809;56.390;-3.266;2023-03-01T10:51:40;0.50;;;0.50;;
23280;SDS011;11809;56.390;-3.266;2023-03-01T10:54:18;0.47;;;0.40;;
23280;SDS011;11809;56.390;-3.266;2023-03-01T10:56:53;0.60;;;0.55;;
23280;SDS011;11809;56.390;-3.266;2023-03-01T10:59:25;0.70;;;0.50;;
23280;SDS011;11809;56.390;-3.266;2023-03-01T11:07:55;0.60;;;0.60;;
23280;SDS011;11809;56.390;-3.266;2023-03-01T11:10:29;1.55;;;0.50;;
23280;SDS011;11809;56.390;-3.266;2023-03-01T11:15:42;0.80;;;0.40;;
23280;SDS011;11809;56.390;-3.266;2023-03-01T11:18:24;0.60;;;0.50;;
23280;SDS011;11809;56.390;-3.266;2023-03-01T11:21:11;1.00;;;0.60;;
23280;SDS011;11809;56.390;-3.266;2023-03-01T11:23:39;0.68;;;0.60;;
23280;SDS011;11809;56.390;-3.266;2023-03-01T11:26:08;0.82;;;0.50;;
23280;SDS011;11809;56.390;-3.266;2023-03-01T11:28:38;0.50;;;0.50;;
23280;SDS011;11809;56.390;-3.266;2023-03-01T11:31:09;0.95;;;0.50;;
23280;SDS011;11809;56.390;-3.266;2023-03-01T11:33:46;0.95;;;0.60;;
23280;SDS011;11809;56.390;-3.266;2023-03-01T11:36:35;1.05;;;0.60;;
23280;SDS011;11809;56.390;-3.266;2023-03-01T11:39:12;0.40;;;0.38;;
23280;SDS011;11809;56.390;-3.266;2023-03-01T11:42:06;0.50;;;0.50;;
23280;SDS011;11809;56.390;-3.266;2023-03-01T11:44:46;0.50;;;0.50;;
23280;SDS011;11809;56.390;-3.266;2023-03-01T11:47:23;1.48;;;0.43;;
23280;SDS011;11809;56.390;-3.266;2023-03-01T11:58:27;0.90;;;0.50;;
23280;SDS011;11809;56.390;-3.266;2023-03-01T12:06:44;0.52;;;0.40;;
23280;SDS011;11809;56.390;-3.266;2023-03-01T12:22:50;0.50;;;0.40;;
23280;SDS011;11809;56.390;-3.266;2023-03-01T12:37:46;3.10;;;0.50;;
23280;SDS011;11809;56.390;-3.266;2023-03-01T12:40:32;1.67;;;0.25;;
23280;SDS011;11809;56.390;-3.266;2023-03-01T12:43:16;0.30;;;0.25;;
23280;SDS011;11809;56.390;-3.266;2023-03-01T12:51:20;0.68;;;0.30;;
23280;SDS011;11809;56.390;-3.266;2023-03-01T12:53:53;3.33;;;0.30;;
23280;SDS011;11809;56.390;-3.266;2023-03-01T12:56:23;0.40;;;0.20;;
23280;SDS011;11809;56.390;-3.266;2023-03-01T12:59:00;1.02;;;0.30;;
23280;SDS011;11809;56.390;-3.266;2023-03-01T13:04:27;0.20;;;0.20;;
23280;SDS011;11809;56.390;-3.266;2023-03-01T13:17:50;1.15;;;0.20;;
23280;SDS011;11809;56.390;-3.266;2023-03-01T13:33:46;0.63;;;0.30;;
23280;SDS011;11809;56.390;-3.266;2023-03-01T13:41:55;0.60;;;0.17;;
23280;SDS011;11809;56.390;-3.266;2023-03-01T13:46:52;0.10;;;0.10;;
23280;SDS011;11809;56.390;-3.266;2023-03-01T13:51:55;0.63;;;0.30;;
23280;SDS011;11809;56.390;-3.266;2023-03-01T13:54:29;0.25;;;0.20;;
23280;SDS011;11809;56.390;-3.266;2023-03-01T13:56:59;3.45;;;0.70;;
23280;SDS011;11809;56.390;-3.266;2023-03-01T13:59:27;1.77;;;0.30;;
23280;SDS011;11809;56.390;-3.266;2023-03-01T14:01:58;2.00;;;0.20;;
23280;SDS011;11809;56.390;-3.266;2023-03-01T14:09:44;0.20;;;0.20;;
23280;SDS011;11809;56.390;-3.266;2023-03-01T14:14:59;0.20;;;0.20;;
23280;SDS011;11809;56.390;-3.266;2023-03-01T14:20:14;0.30;;;0.30;;
23280;SDS011;11809;56.390;-3.266;2023-03-01T14:22:45;1.38;;;0.30;;
23280;SDS011;11809;56.390;-3.266;2023-03-01T14:25:32;5.95;;;0.38;;
23280;SDS011;11809;56.390;-3.266;2023-03-01T14:28:18;0.65;;;0.40;;
23280;SDS011;11809;56.390;-3.266;2023-03-01T14:30:49;8.98;;;0.88;;
23280;SDS011;11809;56.390;-3.266;2023-03-01T14:33:28;4.43;;;0.50;;
23280;SDS011;11809;56.390;-3.266;2023-03-01T14:36:09;0.77;;;0.40;;
23280;SDS011;11809;56.390;-3.266;2023-03-01T14:38:45;3.13;;;0.52;;
23280;SDS011;11809;56.390;-3.266;2023-03-01T14:43:56;2.35;;;0.40;;
23280;SDS011;11809;56.390;-3.266;2023-03-01T14:51:43;2.88;;;0.60;;
23280;SDS011;11809;56.390;-3.266;2023-03-01T14:54:39;2.90;;;0.43;;
23280;SDS011;11809;56.390;-3.266;2023-03-01T14:57:21;3.53;;;0.77;;
23280;SDS011;11809;56.390;-3.266;2023-03-01T14:59:51;4.68;;;0.70;;
23280;SDS011;11809;56.390;-3.266;2023-03-01T15:02:24;2.65;;;0.55;;
23280;SDS011;11809;56.390;-3.266;2023-03-01T15:04:56;4.63;;;0.65;;
23280;SDS011;11809;56.390;-3.266;2023-03-01T15:07:34;7.95;;;0.75;;
23280;SDS011;11809;56.390;-3.266;2023-03-01T15:10:05;4.00;;;0.50;;
23280;SDS011;11809;56.390;-3.266;2023-03-01T15:12:35;3.90;;;0.50;;
23280;SDS011;11809;56.390;-3.266;2023-03-01T15:17:57;10.32;;;1.13;;
23280;SDS011;11809;56.390;-3.266;2023-03-01T15:20:27;3.17;;;0.70;;
23280;SDS011;11809;56.390;-3.266;2023-03-01T15:22:57;4.95;;;0.55;;
23280;SDS011;11809;56.390;-3.266;2023-03-01T15:25:25;4.88;;;0.70;;
23280;SDS011;11809;56.390;-3.266;2023-03-01T15:27:54;6.20;;;0.75;;
23280;SDS011;11809;56.390;-3.266;2023-03-01T15:30:33;6.65;;;0.80;;
23280;SDS011;11809;56.390;-3.266;2023-03-01T15:40:53;3.97;;;0.70;;
23280;SDS011;11809;56.390;-3.266;2023-03-01T15:46:15;67.32;;;4.05;;
23280;SDS011;11809;56.390;-3.266;2023-03-01T15:48:47;60.80;;;3.97;;
23280;SDS011;11809;56.390;-3.266;2023-03-01T15:51:20;46.25;;;3.25;;
23280;SDS011;11809;56.390;-3.266;2023-03-01T15:53:54;45.45;;;2.90;;
23280;SDS011;11809;56.390;-3.266;2023-03-01T15:56:21;78.50;;;4.50;;
23280;SDS011;11809;56.390;-3.266;2023-03-01T15:58:48;54.70;;;4.05;;
23280;SDS011;11809;56.390;-3.266;2023-03-01T16:01:16;46.03;;;2.88;;
23280;SDS011;11809;56.390;-3.266;2023-03-01T16:03:44;38.00;;;2.17;;
23280;SDS011;11809;56.390;-3.266;2023-03-01T16:06:14;33.08;;;1.88;;
23280;SDS011;11809;56.390;-3.266;2023-03-01T16:08:41;32.72;;;1.83;;
23280;SDS011;11809;56.390;-3.266;2023-03-01T16:11:11;31.55;;;2.25;;
23280;SDS011;11809;56.390;-3.266;2023-03-01T16:13:43;24.33;;;2.22;;
23280;SDS011;11809;56.390;-3.266;2023-03-01T16:16:11;18.20;;;1.85;;
23280;SDS011;11809;56.390;-3.266;2023-03-01T16:18:42;25.55;;;1.60;;
23280;SDS011;11809;56.390;-3.266;2023-03-01T16:21:12;28.75;;;2.15;;
23280;SDS011;11809;56.390;-3.266;2023-03-01T16:23:42;17.10;;;1.20;;
23280;SDS011;11809;56.390;-3.266;2023-03-01T16:26:10;17.23;;;1.77;;
23280;SDS011;11809;56.390;-3.266;2023-03-01T16:28:39;10.35;;;1.10;;
23280;SDS011;11809;56.390;-3.266;2023-03-01T16:31:08;11.95;;;1.05;;
23280;SDS011;11809;56.390;-3.266;2023-03-01T16:33:36;10.13;;;0.80;;
23280;SDS011;11809;56.390;-3.266;2023-03-01T16:36:08;12.70;;;0.90;;
23280;SDS011;11809;56.390;-3.266;2023-03-01T16:38:36;38.90;;;3.03;;
23280;SDS011;11809;56.390;-3.266;2023-03-01T16:41:05;36.67;;;2.78;;
23280;SDS011;11809;56.390;-3.266;2023-03-01T16:43:37;20.90;;;1.35;;
23280;SDS011;11809;56.390;-3.266;2023-03-01T16:46:12;31.48;;;2.05;;
23280;SDS011;11809;56.390;-3.266;2023-03-01T16:48:41;29.50;;;1.80;;
23280;SDS011;11809;56.390;-3.266;2023-03-01T16:51:08;14.45;;;2.15;;
23280;SDS011;11809;56.390;-3.266;2023-03-01T16:53:36;16.92;;;1.50;;
23280;SDS011;11809;56.390;-3.266;2023-03-01T16:56:05;24.65;;;1.98;;
23280;SDS011;11809;56.390;-3.266;2023-03-01T16:58:34;16.83;;;1.98;;
23280;SDS011;11809;56.390;-3.266;2023-03-01T17:01:12;24.35;;;1.60;;
23280;SDS011;11809;56.390;-3.266;2023-03-01T17:03:42;33.65;;;1.77;;
23280;SDS011;11809;56.390;-3.266;2023-03-01T17:06:11;38.13;;;2.38;;
23280;SDS011;11809;56.390;-3.266;2023-03-01T17:08:40;37.40;;;2.50;;
23280;SDS011;11809;56.390;-3.266;2023-03-01T17:11:09;13.77;;;1.80;;
23280;SDS011;11809;56.390;-3.266;2023-03-01T17:13:38;21.02;;;2.00;;
23280;SDS011;11809;56.390;-3.266;2023-03-01T17:16:06;39.70;;;2.80;;
23280;SDS011;11809;56.390;-3.266;2023-03-01T17:18:35;40.13;;;2.92;;
23280;SDS011;11809;56.390;-3.266;2023-03-01T17:21:03;24.02;;;2.00;;
23280;SDS011;11809;56.390;-3.266;2023-03-01T17:23:32;16.50;;;2.08;;
23280;SDS011;11809;56.390;-3.266;2023-03-01T17:26:00;18.45;;;1.95;;
23280;SDS011;11809;56.390;-3.266;2023-03-01T17:28:28;19.00;;;2.30;;
23280;SDS011;11809;56.390;-3.266;2023-03-01T17:30:58;15.87;;;1.50;;
23280;SDS011;11809;56.390;-3.266;2023-03-01T17:33:26;13.95;;;1.80;;
23280;SDS011;11809;56.390;-3.266;2023-03-01T17:35:59;28.92;;;2.38;;